Time;durP1;ratioP1;P1;durP2;ratioP2;P2;SDS_P1;SDS_P2;PMS_P1;PMS_P2;Temp;Humidity;BMP_temperature;BMP_pressure;BME280_temperature;BME280_humidity;BME280_pressure;Samples;Min_cycle;Max_cycle;Signal;HPM_P1;HPM_P2
2021/06/10 00:02:23;;;;;;;13.35;7.20;;;;;;;16.89;46.90;98757.13;5090899;28;20588;-66
2021/06/10 00:04:48;;;;;;;11.10;6.30;;;;;;;16.85;46.99;98757.00;5089526;28;20028;-67
2021/06/10 00:07:15;;;;;;;10.40;6.35;;;;;;;16.82;46.59;98752.13;5090943;28;20055;-66
2021/06/10 00:09:40;;;;;;;12.43;6.15;;;;;;;16.78;46.83;98749.19;5092594;28;20032;-66
2021/06/10 00:12:06;;;;;;;13.90;6.30;;;;;;;16.75;46.62;98752.59;5090492;28;20020;-66
2021/06/10 00:14:32;;;;;;;10.93;6.07;;;;;;;16.73;46.88;98754.09;5092012;28;20198;-66
2021/06/10 00:16:57;;;;;;;11.85;6.63;;;;;;;16.71;46.90;98759.16;5090877;28;20036;-66
2021/06/10 00:19:23;;;;;;;12.63;6.45;;;;;;;16.71;47.08;98751.63;5090151;28;20024;-66
2021/06/10 00:21:48;;;;;;;11.82;6.35;;;;;;;16.66;47.45;98755.41;5090293;28;20031;-66
2021/06/10 00:24:14;;;;;;;11.45;6.22;;;;;;;16.64;47.39;98748.59;5089801;28;20047;-66
2021/06/10 00:26:39;;;;;;;12.45;6.18;;;;;;;16.62;47.24;98756.41;5090860;28;20032;-66
2021/06/10 00:29:06;;;;;;;11.60;6.72;;;;;;;16.60;47.64;98751.19;5089979;28;20031;-66
2021/06/10 00:31:32;;;;;;;10.32;5.80;;;;;;;16.59;47.88;98755.09;5090129;28;20047;-67
2021/06/10 00:33:58;;;;;;;11.30;5.90;;;;;;;16.53;47.63;98750.88;5089955;28;20074;-67
2021/06/10 00:36:23;;;;;;;11.40;6.50;;;;;;;16.49;47.87;98755.47;5089047;28;20027;-67
2021/06/10 00:38:48;;;;;;;11.45;6.45;;;;;;;16.42;47.67;98753.19;5089991;28;20453;-66
2021/06/10 00:41:14;;;;;;;10.90;6.72;;;;;;;16.40;47.77;98749.13;5090148;28;20020;-66
2021/06/10 00:43:41;;;;;;;12.63;6.38;;;;;;;16.34;47.53;98749.28;5089666;28;20031;-67
2021/06/10 00:46:06;;;;;;;14.13;6.53;;;;;;;16.31;47.98;98749.94;5089501;28;20099;-67
2021/06/10 00:48:34;;;;;;;9.68;6.18;;;;;;;16.28;47.81;98752.56;5089489;28;20039;-67
2021/06/10 00:51:00;;;;;;;14.70;7.13;;;;;;;16.24;48.19;98749.63;5089208;28;20051;-67
2021/06/10 00:53:25;;;;;;;11.20;6.15;;;;;;;16.24;48.06;98757.91;5089572;28;20031;-66
2021/06/10 00:55:57;;;;;;;12.13;6.53;;;;;;;16.23;48.34;98753.53;5088835;28;20396;-66
2021/06/10 00:58:23;;;;;;;13.68;6.45;;;;;;;16.18;48.29;98743.44;5089338;28;21304;-67
2021/06/10 01:00:49;;;;;;;14.00;6.65;;;;;;;16.14;48.61;98750.78;5089390;28;20059;-66
2021/06/10 01:03:14;;;;;;;12.02;6.55;;;;;;;16.09;48.56;98752.91;5089490;28;20028;-66
2021/06/10 01:05:41;;;;;;;10.75;6.47;;;;;;;16.07;48.63;98754.03;5088466;28;20020;-66
2021/06/10 01:08:07;;;;;;;12.48;6.53;;;;;;;16.06;48.48;98759.88;5087038;28;20032;-66
2021/06/10 01:10:57;;;;;;;13.35;6.30;;;;;;;16.04;48.87;98748.31;5089551;28;20035;-66
2021/06/10 01:13:30;;;;;;;13.52;7.32;;;;;;;16.00;48.81;98748.19;5089027;28;20092;-66
2021/06/10 01:15:59;;;;;;;18.05;9.23;;;;;;;15.98;48.92;98744.09;5088731;28;20094;-67
2021/06/10 01:18:26;;;;;;;14.90;8.30;;;;;;;15.95;48.88;98747.50;5089037;28;20118;-67
2021/06/10 01:20:53;;;;;;;13.48;7.97;;;;;;;15.89;49.50;98746.88;5089361;28;20091;-67
2021/06/10 01:23:32;;;;;;;13.25;7.30;;;;;;;15.85;49.17;98746.69;5089035;28;20452;-66
2021/06/10 01:26:25;;;;;;;13.60;6.72;;;;;;;15.80;49.25;98752.38;5088481;28;20480;-66
2021/06/10 01:28:52;;;;;;;15.93;7.63;;;;;;;15.75;49.27;98750.56;5088826;28;20046;-66
2021/06/10 01:31:18;;;;;;;13.70;7.25;;;;;;;15.72;49.88;98753.97;5089097;28;20131;-66
2021/06/10 01:33:48;;;;;;;13.70;7.65;;;;;;;15.72;49.94;98742.09;5088835;28;20111;-66
2021/06/10 01:36:17;;;;;;;12.32;7.22;;;;;;;15.69;49.67;98745.50;5088215;28;20073;-66
2021/06/10 01:38:50;;;;;;;11.82;6.68;;;;;;;15.62;49.56;98735.75;5088783;28;20032;-66
2021/06/10 01:41:20;;;;;;;12.85;7.53;;;;;;;15.59;49.93;98741.91;5087864;28;20050;-66
2021/06/10 01:43:47;;;;;;;15.48;6.93;;;;;;;15.59;49.95;98741.13;5068887;28;20103;-66
2021/06/10 01:46:13;;;;;;;12.25;6.65;;;;;;;15.58;50.26;98756.06;5089637;28;20569;-67
2021/06/10 01:48:43;;;;;;;12.60;7.13;;;;;;;15.58;50.28;98739.50;5089934;28;20028;-66
2021/06/10 01:51:09;;;;;;;13.38;7.90;;;;;;;15.57;50.53;98740.63;5090388;28;20043;-67
2021/06/10 01:53:38;;;;;;;13.18;7.75;;;;;;;15.55;50.66;98737.38;5091973;28;20030;-66
2021/06/10 01:56:05;;;;;;;13.57;8.23;;;;;;;15.53;50.25;98740.44;5088627;28;20031;-66
2021/06/10 01:58:31;;;;;;;14.05;7.85;;;;;;;15.52;50.21;98743.53;5089802;28;20464;-66
2021/06/10 02:00:57;;;;;;;13.60;8.05;;;;;;;15.51;50.45;98744.66;5090168;28;20031;-67
2021/06/10 02:03:23;;;;;;;13.82;8.10;;;;;;;15.48;50.83;98730.34;5089802;28;20028;-67
2021/06/10 02:05:50;;;;;;;15.55;8.35;;;;;;;15.48;50.95;98729.56;5089634;28;20464;-67
2021/06/10 02:08:18;;;;;;;16.63;8.38;;;;;;;15.47;50.72;98738.97;5090015;28;20021;-66
2021/06/10 02:10:51;;;;;;;15.48;9.20;;;;;;;15.45;50.93;98728.22;5089691;28;20020;-67
2021/06/10 02:13:21;;;;;;;15.55;9.80;;;;;;;15.44;51.26;98734.91;5088243;28;20513;-67
2021/06/10 02:15:47;;;;;;;17.33;9.27;;;;;;;15.45;51.13;98733.75;5088160;28;20020;-67
2021/06/10 02:18:14;;;;;;;17.85;10.80;;;;;;;15.46;51.30;98729.06;5089505;28;20027;-67
2021/06/10 02:20:40;;;;;;;22.15;10.55;;;;;;;15.45;51.18;98736.53;5090037;28;20111;-68
2021/06/10 02:23:07;;;;;;;16.25;10.00;;;;;;;15.47;51.42;98734.25;5087998;28;20027;-67
2021/06/10 02:25:33;;;;;;;19.85;10.52;;;;;;;15.47;51.67;98736.22;5089292;28;20032;-67
2021/06/10 02:27:59;;;;;;;22.17;10.73;;;;;;;15.48;51.33;98732.31;5092033;28;20119;-67
2021/06/10 02:30:24;;;;;;;21.65;11.27;;;;;;;15.47;51.61;98727.94;5089410;28;20103;-66
2021/06/10 02:32:50;;;;;;;24.75;11.45;;;;;;;15.46;51.88;98737.34;5090214;28;20028;-67
2021/06/10 02:35:16;;;;;;;23.65;10.80;;;;;;;15.44;51.55;98737.66;5088668;28;20028;-67
2021/06/10 02:37:46;;;;;;;25.33;12.73;;;;;;;15.45;51.71;98735.72;5090151;28;20024;-68
2021/06/10 02:40:15;;;;;;;21.23;11.27;;;;;;;15.40;51.70;98738.63;5089712;28;20032;-67
2021/06/10 02:42:42;;;;;;;24.83;12.48;;;;;;;15.37;52.18;98742.84;5088842;28;20159;-67
2021/06/10 02:45:08;;;;;;;19.17;11.65;;;;;;;15.36;52.63;98740.41;5087199;28;20020;-69
2021/06/10 02:47:35;;;;;;;26.15;12.70;;;;;;;15.34;52.56;98740.72;5090748;28;20485;-67
2021/06/10 02:50:03;;;;;;;22.60;12.00;;;;;;;15.32;52.30;98737.47;5089616;28;20111;-67
2021/06/10 02:52:29;;;;;;;22.75;11.45;;;;;;;15.31;52.66;98738.59;5091162;28;20368;-67
2021/06/10 02:54:55;;;;;;;20.30;11.18;;;;;;;15.28;52.72;98736.50;5088328;28;20028;-67
2021/06/10 02:57:22;;;;;;;19.83;10.70;;;;;;;15.21;53.29;98738.91;5090200;28;20077;-67
2021/06/10 02:59:49;;;;;;;25.35;11.18;;;;;;;15.12;53.32;98733.34;5088984;28;20465;-68
2021/06/10 03:02:15;;;;;;;22.52;11.15;;;;;;;15.13;53.33;98738.56;5095715;28;20020;-67
2021/06/10 03:04:42;;;;;;;21.38;11.13;;;;;;;15.11;53.18;98734.47;5088937;28;20020;-67
2021/06/10 03:07:12;;;;;;;22.23;11.40;;;;;;;15.08;53.28;98738.69;5092678;28;20021;-68
2021/06/10 03:09:39;;;;;;;20.88;11.50;;;;;;;15.11;53.60;98742.75;5092982;28;20024;-67
2021/06/10 03:12:06;;;;;;;22.73;11.30;;;;;;;15.10;53.71;98741.97;5078266;28;21780;-68
2021/06/10 03:14:32;;;;;;;21.95;12.65;;;;;;;15.12;54.01;98739.69;5090347;28;20036;-68
2021/06/10 03:16:58;;;;;;;19.85;11.75;;;;;;;15.11;53.81;98738.06;5095117;28;20028;-68
2021/06/10 03:19:25;;;;;;;21.08;11.18;;;;;;;15.11;53.91;98753.81;5094144;28;20073;-67
2021/06/10 03:21:50;;;;;;;21.88;11.23;;;;;;;15.09;54.20;98748.63;5095150;28;20035;-67
2021/06/10 03:24:18;;;;;;;26.80;11.48;;;;;;;15.11;54.29;98751.03;5075252;28;20547;-67
2021/06/10 03:26:44;;;;;;;22.55;11.25;;;;;;;15.14;54.46;98747.66;5094491;28;20119;-68
2021/06/10 03:29:10;;;;;;;22.30;11.82;;;;;;;15.15;54.36;98749.28;5093914;28;20025;-68
2021/06/10 03:31:36;;;;;;;23.60;11.32;;;;;;;15.17;54.44;98752.53;5093900;28;20039;-68
2021/06/10 03:34:03;;;;;;;23.35;11.63;;;;;;;15.21;54.17;98749.97;5095327;28;20070;-67
2021/06/10 03:36:30;;;;;;;21.40;11.90;;;;;;;15.26;54.36;98747.06;5093230;28;20425;-67
2021/06/10 03:38:56;;;;;;;25.00;11.50;;;;;;;15.29;54.77;98751.91;5093666;28;20051;-68
2021/06/10 03:41:22;;;;;;;20.13;11.98;;;;;;;15.32;54.70;98754.03;5094506;28;20396;-67
2021/06/10 03:43:48;;;;;;;24.58;11.73;;;;;;;15.35;54.58;98747.88;5093614;28;20031;-67
2021/06/10 03:46:14;;;;;;;24.58;11.60;;;;;;;15.37;54.57;98756.66;5092664;28;20020;-67
2021/06/10 03:48:41;;;;;;;21.15;11.43;;;;;;;15.40;54.72;98760.75;5093749;28;20039;-67
2021/06/10 03:51:24;;;;;;;27.58;12.73;;;;;;;15.40;54.41;98764.31;5093483;28;20075;-67
2021/06/10 03:53:52;;;;;;;23.63;12.05;;;;;;;15.44;54.93;98758.97;5093232;28;20036;-67
2021/06/10 03:56:19;;;;;;;22.38;11.85;;;;;;;15.47;54.58;98766.63;5095141;28;20110;-67
2021/06/10 03:58:44;;;;;;;25.27;12.90;;;;;;;15.47;54.71;98761.91;5093744;28;20497;-67
2021/06/10 04:01:09;;;;;;;25.15;13.02;;;;;;;15.49;54.72;98769.84;5095383;28;20120;-67
2021/06/10 04:03:35;;;;;;;25.52;13.07;;;;;;;15.54;55.02;98771.66;5093137;28;20408;-67
2021/06/10 04:06:01;;;;;;;27.42;13.38;;;;;;;15.57;54.66;98768.25;5092709;28;20051;-67
2021/06/10 04:08:28;;;;;;;24.90;12.45;;;;;;;15.58;54.95;98779.00;5093608;28;20027;-68
2021/06/10 04:10:53;;;;;;;26.20;12.70;;;;;;;15.61;54.99;98778.34;5094539;28;20123;-67
2021/06/10 04:13:19;;;;;;;24.30;11.95;;;;;;;15.61;55.45;98783.06;5093192;28;20028;-67
2021/06/10 04:15:44;;;;;;;26.95;13.32;;;;;;;15.63;55.61;98781.59;5092473;28;20103;-67
2021/06/10 04:18:10;;;;;;;23.77;12.18;;;;;;;15.68;55.20;98777.91;5092548;28;20024;-68
2021/06/10 04:20:35;;;;;;;21.38;12.55;;;;;;;15.69;55.34;98776.72;5092926;28;20024;-67
2021/06/10 04:23:00;;;;;;;23.15;12.48;;;;;;;15.72;56.06;98778.84;5094044;28;20032;-67
2021/06/10 04:25:26;;;;;;;23.75;13.38;;;;;;;15.72;55.21;98778.84;5092029;28;20028;-68
2021/06/10 04:27:51;;;;;;;24.15;13.15;;;;;;;15.76;55.59;98776.28;5075155;28;20467;-67
2021/06/10 04:30:17;;;;;;;24.63;14.35;;;;;;;15.77;55.83;98775.94;5092844;28;20026;-68
2021/06/10 04:32:45;;;;;;;23.23;12.88;;;;;;;15.80;55.45;98779.19;5093715;28;20115;-67
2021/06/10 04:35:14;;;;;;;29.67;13.40;;;;;;;15.82;55.73;98780.50;5092358;28;20032;-67
2021/06/10 04:37:40;;;;;;;30.58;14.35;;;;;;;15.85;55.20;98777.09;5092912;28;20058;-68
2021/06/10 04:40:06;;;;;;;25.17;13.05;;;;;;;15.90;55.88;98778.91;5092562;28;20059;-67
2021/06/10 04:42:32;;;;;;;27.50;13.00;;;;;;;15.97;55.66;98775.66;5094134;28;20558;-68
2021/06/10 04:44:58;;;;;;;21.55;13.07;;;;;;;16.01;55.35;98784.94;5092053;28;20028;-68
2021/06/10 04:47:23;;;;;;;24.50;12.85;;;;;;;16.05;55.33;98778.44;5092629;28;20036;-68
2021/06/10 04:49:48;;;;;;;20.15;12.65;;;;;;;16.08;55.28;98774.19;5092693;28;20040;-68
2021/06/10 04:52:14;;;;;;;26.45;13.23;;;;;;;16.11;55.43;98775.50;5093104;28;20480;-68
2021/06/10 04:54:40;;;;;;;21.08;12.25;;;;;;;16.12;55.51;98766.88;5091416;28;20035;-67
2021/06/10 04:57:06;;;;;;;21.55;12.52;;;;;;;16.12;56.08;98771.59;5092106;28;20028;-67
2021/06/10 04:59:31;;;;;;;24.77;14.13;;;;;;;16.15;55.70;98779.25;5091819;28;20487;-67
2021/06/10 05:01:56;;;;;;;33.75;15.88;;;;;;;16.17;55.79;98772.25;5092171;28;20031;-67
2021/06/10 05:04:22;;;;;;;27.77;13.65;;;;;;;16.17;55.47;98769.50;5091391;28;20499;-68
2021/06/10 05:06:50;;;;;;;23.13;13.07;;;;;;;16.20;55.75;98774.38;5073892;28;20032;-67
2021/06/10 05:09:15;;;;;;;24.80;13.40;;;;;;;16.22;55.26;98769.31;5092952;28;20486;-68
2021/06/10 05:11:41;;;;;;;23.63;13.63;;;;;;;16.26;55.54;98772.25;5091792;28;20118;-67
2021/06/10 05:14:06;;;;;;;27.92;12.95;;;;;;;16.32;55.66;98772.88;5092511;28;20162;-67
2021/06/10 05:16:32;;;;;;;24.77;12.80;;;;;;;16.35;55.54;98784.13;5093283;28;20039;-67
2021/06/10 05:18:57;;;;;;;26.50;14.38;;;;;;;16.40;55.51;98774.03;5097201;28;20028;-68
2021/06/10 05:21:23;;;;;;;31.40;13.88;;;;;;;16.47;55.41;98771.59;5091809;28;20129;-67
2021/06/10 05:23:48;;;;;;;26.63;13.82;;;;;;;16.55;55.65;98770.72;5095004;28;20101;-67
2021/06/10 05:26:14;;;;;;;32.78;13.73;;;;;;;16.63;55.35;98772.69;5091096;28;20587;-67
2021/06/10 05:28:39;;;;;;;23.88;13.10;;;;;;;16.71;55.19;98773.00;5092272;28;20028;-68
2021/06/10 05:31:07;;;;;;;25.77;14.52;;;;;;;16.78;55.38;98781.63;5090997;28;20035;-67
2021/06/10 05:33:33;;;;;;;25.60;13.82;;;;;;;16.84;55.35;98782.25;5091504;28;20038;-67
2021/06/10 05:35:58;;;;;;;23.65;13.95;;;;;;;16.90;55.09;98783.69;5090633;28;20032;-67
2021/06/10 05:38:24;;;;;;;21.83;13.05;;;;;;;16.98;54.80;98769.03;5093453;28;20029;-67
2021/06/10 05:40:50;;;;;;;22.77;12.95;;;;;;;17.04;54.94;98776.03;5092809;28;20022;-67
2021/06/10 05:43:15;;;;;;;25.48;13.30;;;;;;;17.08;54.81;98776.16;5091658;28;20516;-67
2021/06/10 05:45:40;;;;;;;24.05;13.52;;;;;;;17.14;54.70;98774.84;5090704;28;20454;-68
2021/06/10 05:48:07;;;;;;;27.33;14.63;;;;;;;17.20;54.74;98764.38;5090974;28;20532;-67
2021/06/10 05:50:32;;;;;;;24.25;13.60;;;;;;;17.20;55.00;98772.69;5094024;28;20218;-68
2021/06/10 05:52:58;;;;;;;29.48;13.68;;;;;;;17.27;54.79;98775.75;5091257;28;20115;-67
2021/06/10 05:55:24;;;;;;;26.80;13.93;;;;;;;17.31;54.49;98773.16;5090007;28;20032;-67
2021/06/10 05:57:50;;;;;;;25.23;13.95;;;;;;;17.38;54.38;98770.63;5091123;28;20487;-68
2021/06/10 06:00:17;;;;;;;30.02;13.57;;;;;;;17.44;54.75;98769.31;5092589;28;20075;-68
2021/06/10 06:02:42;;;;;;;23.23;13.20;;;;;;;17.51;54.31;98772.38;5092408;28;20031;-68
2021/06/10 06:05:08;;;;;;;24.63;13.48;;;;;;;17.58;54.24;98771.84;5090388;28;20096;-68
2021/06/10 06:07:34;;;;;;;22.25;12.80;;;;;;;17.64;54.23;98767.72;5091126;28;20604;-68
2021/06/10 06:10:00;;;;;;;27.48;12.80;;;;;;;17.68;54.15;98778.97;5092182;28;20549;-68
2021/06/10 06:12:26;;;;;;;24.98;11.88;;;;;;;17.73;54.11;98766.84;5090729;28;20064;-68
2021/06/10 06:14:52;;;;;;;20.98;11.18;;;;;;;17.80;53.74;98770.72;5090190;28;20088;-67
2021/06/10 06:17:18;;;;;;;23.80;12.57;;;;;;;17.89;53.83;98775.41;5091038;28;20460;-67
2021/06/10 06:19:44;;;;;;;22.95;11.57;;;;;;;17.98;53.38;98773.38;5091079;28;20024;-67
2021/06/10 06:22:10;;;;;;;17.90;10.40;;;;;;;18.06;53.58;98774.47;5091011;28;20110;-68
2021/06/10 06:24:35;;;;;;;20.25;12.32;;;;;;;18.13;53.13;98772.81;5090413;28;20067;-67
2021/06/10 06:27:01;;;;;;;18.33;10.75;;;;;;;18.21;52.98;98770.28;5093838;28;20035;-67
2021/06/10 06:29:27;;;;;;;22.08;11.73;;;;;;;18.28;53.04;98776.09;5090039;28;20472;-67
2021/06/10 06:31:53;;;;;;;18.83;11.15;;;;;;;18.36;53.09;98772.44;5093945;28;20023;-67
2021/06/10 06:34:18;;;;;;;17.02;10.15;;;;;;;18.45;52.76;98769.56;5091371;28;20435;-67
2021/06/10 06:36:43;;;;;;;20.52;11.20;;;;;;;18.51;52.78;98779.31;5091273;28;20196;-66
2021/06/10 06:39:09;;;;;;;22.05;11.13;;;;;;;18.60;52.66;98768.09;5091856;28;20269;-67
2021/06/10 06:41:38;;;;;;;17.70;9.65;;;;;;;18.68;52.56;98766.41;5092436;28;20034;-67
2021/06/10 06:44:04;;;;;;;16.77;9.30;;;;;;;18.70;52.37;98767.69;5093029;28;20038;-67
2021/06/10 06:46:30;;;;;;;14.00;8.60;;;;;;;18.79;52.01;98769.56;5094419;28;20024;-67
2021/06/10 06:48:55;;;;;;;20.25;9.18;;;;;;;18.85;51.77;98768.19;5095217;28;20020;-67
2021/06/10 06:51:21;;;;;;;15.40;8.20;;;;;;;18.95;51.49;98764.94;5095655;28;20047;-67
2021/06/10 06:53:46;;;;;;;13.10;8.00;;;;;;;19.02;51.27;98765.22;5098366;28;20522;-67
2021/06/10 06:56:12;;;;;;;17.58;8.15;;;;;;;19.12;51.19;98775.09;5094386;28;20024;-68
2021/06/10 06:58:38;;;;;;;18.05;9.00;;;;;;;19.18;51.30;98773.69;5071569;28;20680;-67
2021/06/10 07:01:04;;;;;;;14.23;8.32;;;;;;;19.29;51.29;98770.47;5086416;28;20038;-67
2021/06/10 07:03:29;;;;;;;15.30;8.00;;;;;;;19.39;50.88;98777.53;5092466;28;20036;-67
2021/06/10 07:05:55;;;;;;;13.98;7.60;;;;;;;19.46;50.20;98774.97;5083299;28;20593;-67
2021/06/10 07:08:20;;;;;;;12.50;7.30;;;;;;;19.52;49.99;98770.00;5090303;28;20032;-67
2021/06/10 07:10:46;;;;;;;11.85;7.45;;;;;;;19.59;49.71;98771.03;5091222;28;20031;-68
2021/06/10 07:13:11;;;;;;;15.82;7.68;;;;;;;19.70;49.66;98776.13;5091549;28;20390;-69
2021/06/10 07:15:38;;;;;;;12.60;7.13;;;;;;;19.79;49.82;98779.56;5091522;28;20118;-68
2021/06/10 07:18:03;;;;;;;15.18;8.30;;;;;;;19.87;49.71;98775.84;5091968;28;20830;-67
2021/06/10 07:20:29;;;;;;;12.68;7.45;;;;;;;19.96;49.47;98780.50;5091263;28;20052;-68
2021/06/10 07:22:54;;;;;;;15.35;7.32;;;;;;;20.04;48.59;98785.13;5090938;28;20035;-67
2021/06/10 07:25:20;;;;;;;14.48;7.47;;;;;;;20.07;48.39;98782.44;5092353;28;20028;-66
2021/06/10 07:27:46;;;;;;;13.43;6.90;;;;;;;20.12;47.96;98780.59;5091309;28;20028;-67
2021/06/10 07:30:12;;;;;;;9.40;5.10;;;;;;;20.16;47.39;98789.84;5091089;28;20020;-67
2021/06/10 07:32:38;;;;;;;8.80;5.07;;;;;;;20.19;46.99;98789.94;5090200;28;20016;-67
2021/06/10 07:35:05;;;;;;;9.05;5.40;;;;;;;20.26;46.68;98781.00;5092648;28;20361;-68
2021/06/10 07:37:31;;;;;;;16.92;7.72;;;;;;;20.31;46.54;98777.16;5091323;28;20065;-67
2021/06/10 07:39:56;;;;;;;11.80;6.30;;;;;;;20.36;46.65;98780.53;5089513;28;20032;-68
2021/06/10 07:42:22;;;;;;;8.73;6.18;;;;;;;20.43;46.40;98790.22;5090917;28;20040;-67
2021/06/10 07:44:47;;;;;;;18.58;5.38;;;;;;;20.47;45.44;98791.97;5089667;28;20024;-67
2021/06/10 07:47:13;;;;;;;12.40;7.32;;;;;;;20.52;45.27;98793.66;5091313;28;20024;-66
2021/06/10 07:49:39;;;;;;;10.40;6.75;;;;;;;20.55;45.47;98786.59;5091845;28;20028;-66
2021/06/10 07:52:04;;;;;;;13.55;6.80;;;;;;;20.61;45.82;98787.94;5090959;28;20044;-67
2021/06/10 07:54:30;;;;;;;12.05;7.00;;;;;;;20.67;45.84;98794.88;5072766;28;20035;-66
2021/06/10 07:56:55;;;;;;;10.60;7.13;;;;;;;20.74;45.79;98789.50;5090063;28;20036;-66
2021/06/10 07:59:27;;;;;;;9.70;6.47;;;;;;;20.81;44.87;98795.31;5089585;28;20123;-66
2021/06/10 08:01:54;;;;;;;11.98;6.40;;;;;;;20.85;44.87;98797.38;5091555;28;20028;-68
2021/06/10 08:04:19;;;;;;;13.25;7.10;;;;;;;20.86;44.65;98791.44;5089209;28;20036;-67
2021/06/10 08:06:45;;;;;;;15.02;8.95;;;;;;;20.92;45.18;98798.38;5091213;28;20048;-70
2021/06/10 08:09:10;;;;;;;19.20;9.05;;;;;;;20.98;44.91;98801.72;5072363;28;20028;-68
2021/06/10 08:11:36;;;;;;;12.88;7.97;;;;;;;21.03;45.06;98795.06;5087409;28;20066;-68
2021/06/10 08:14:01;;;;;;;11.63;7.40;;;;;;;21.09;45.04;98805.59;5088005;28;20496;-68
2021/06/10 08:16:27;;;;;;;12.40;7.65;;;;;;;21.14;44.98;98800.91;5091578;28;20039;-67
2021/06/10 08:18:52;;;;;;;13.77;8.70;;;;;;;21.17;44.32;98811.34;5090848;28;20016;-67
2021/06/10 08:21:18;;;;;;;13.85;7.38;;;;;;;21.19;44.27;98811.81;5089444;28;20031;-68
2021/06/10 08:23:43;;;;;;;20.33;9.07;;;;;;;21.19;43.83;98811.81;5090979;28;20197;-67
2021/06/10 08:26:09;;;;;;;49.17;8.65;;;;;;;21.21;44.22;98801.91;5083445;28;20088;-67
2021/06/10 08:28:34;;;;;;;15.90;8.82;;;;;;;21.25;44.09;98802.00;5089901;28;20479;-67
2021/06/10 08:31:00;;;;;;;15.65;8.27;;;;;;;21.30;43.94;98801.75;5091584;28;20020;-68
2021/06/10 08:33:26;;;;;;;16.90;9.35;;;;;;;21.34;44.03;98801.81;5074327;28;21287;-67
2021/06/10 08:35:56;;;;;;;8.93;6.13;;;;;;;21.39;43.68;98801.53;5090940;28;20024;-68
2021/06/10 08:38:21;;;;;;;11.65;6.10;;;;;;;21.46;43.47;98800.91;5091829;28;20077;-67
2021/06/10 08:40:47;;;;;;;11.45;5.95;;;;;;;21.49;41.63;98803.81;5088045;28;20101;-67
2021/06/10 08:43:12;;;;;;;10.48;6.38;;;;;;;21.48;42.05;98807.75;5090853;28;20028;-69
2021/06/10 08:45:42;;;;;;;12.32;6.20;;;;;;;21.50;41.76;98799.84;5088819;28;20051;-67
2021/06/10 08:48:08;;;;;;;12.00;6.97;;;;;;;21.51;42.13;98804.25;5089882;28;20028;-67
2021/06/10 08:50:33;;;;;;;13.57;7.97;;;;;;;21.60;41.10;98803.25;5089378;28;20048;-67
2021/06/10 08:53:00;;;;;;;10.32;5.82;;;;;;;21.64;40.95;98807.78;5089698;28;20031;-67
2021/06/10 08:55:27;;;;;;;10.52;6.45;;;;;;;21.69;40.44;98803.88;5088013;28;20565;-62
2021/06/10 08:57:53;;;;;;;8.82;4.95;;;;;;;21.74;40.25;98813.97;5087851;28;20028;-66
2021/06/10 09:00:23;;;;;;;10.07;5.35;;;;;;;21.75;39.92;98807.22;5088923;28;20056;-67
2021/06/10 09:02:55;;;;;;;8.55;4.53;;;;;;;21.79;39.42;98802.53;5088581;28;20028;-67
2021/06/10 09:05:21;;;;;;;11.20;5.93;;;;;;;21.83;39.52;98812.59;5088690;28;20036;-68
2021/06/10 09:08:09;;;;;;;9.10;6.10;;;;;;;21.90;40.19;98806.34;5088867;28;20031;-68
2021/06/10 09:10:35;;;;;;;11.80;5.65;;;;;;;21.99;39.63;98820.13;5089504;28;20471;-68
2021/06/10 09:13:05;;;;;;;11.13;5.60;;;;;;;22.00;39.52;98811.38;5089662;28;20495;-69
2021/06/10 09:15:37;;;;;;;13.75;6.45;;;;;;;22.03;39.68;98809.03;5070770;28;20393;-67
2021/06/10 09:18:03;;;;;;;9.35;5.68;;;;;;;22.05;40.12;98810.28;5088288;28;20036;-67
2021/06/10 09:20:42;;;;;;;10.10;6.30;;;;;;;22.08;40.13;98815.13;5088875;28;20064;-67
2021/06/10 09:23:27;;;;;;;11.07;6.45;;;;;;;22.20;40.32;98810.59;5089328;28;20472;-67
2021/06/10 09:26:01;;;;;;;13.32;5.80;;;;;;;22.25;40.58;98811.09;5088719;28;20449;-67
2021/06/10 09:28:38;;;;;;;10.93;6.25;;;;;;;22.31;39.82;98812.44;5091516;28;20024;-67
2021/06/10 09:31:04;;;;;;;9.70;5.95;;;;;;;22.35;39.92;98809.75;5089399;28;20476;-68
2021/06/10 09:33:39;;;;;;;11.90;5.80;;;;;;;22.36;40.16;98802.97;5089546;28;20032;-67
2021/06/10 09:36:05;;;;;;;11.63;5.72;;;;;;;22.44;40.21;98813.13;5087059;28;20728;-68
2021/06/10 09:38:30;;;;;;;9.60;5.97;;;;;;;22.56;40.77;98811.38;5089771;28;20028;-68
2021/06/10 09:41:06;;;;;;;12.32;6.80;;;;;;;22.68;40.12;98814.03;5089003;28;20024;-67
2021/06/10 09:43:45;;;;;;;11.70;6.22;;;;;;;22.75;39.61;98816.97;5088350;28;20100;-68
2021/06/10 09:46:10;;;;;;;;;;;;;;;22.82;39.22;98818.28;5087479;28;20535;-68
2021/06/10 09:48:36;;;;;;;7.50;5.60;;;;;;;22.88;38.85;98820.41;5088639;28;19996;-66
2021/06/10 09:51:02;;;;;;;10.88;5.70;;;;;;;22.98;38.97;98821.75;5087574;28;20046;-67
2021/06/10 09:53:29;;;;;;;9.02;6.10;;;;;;;23.03;38.77;98815.88;5088895;28;20027;-67
2021/06/10 09:56:06;;;;;;;9.98;6.75;;;;;;;23.12;38.16;98812.81;5088965;28;20032;-67
2021/06/10 09:58:35;;;;;;;18.45;8.35;;;;;;;23.17;38.72;98803.31;5088554;28;20020;-67
2021/06/10 10:01:11;;;;;;;15.48;7.80;;;;;;;23.23;38.77;98801.03;5088062;28;20059;-68
2021/06/10 10:03:41;;;;;;;11.95;6.70;;;;;;;23.31;38.58;98800.00;5088178;28;20093;-67
2021/06/10 10:06:16;;;;;;;13.45;7.22;;;;;;;23.34;38.84;98793.66;5087900;28;20025;-67
2021/06/10 10:08:41;;;;;;;14.70;6.32;;;;;;;23.42;39.48;98787.00;5088183;28;20113;-67
2021/06/10 10:11:07;;;;;;;9.88;6.35;;;;;;;23.51;39.35;98792.31;5088241;28;20613;-67
2021/06/10 10:13:33;;;;;;;22.65;7.20;;;;;;;23.60;39.24;98789.25;5088891;28;20559;-67
2021/06/10 10:16:01;;;;;;;12.45;6.72;;;;;;;23.69;38.76;98787.00;5087235;28;20501;-67
2021/06/10 10:18:27;;;;;;;12.48;7.53;;;;;;;23.76;38.09;98798.31;5088451;28;20035;-66
2021/06/10 10:20:52;;;;;;;13.98;6.53;;;;;;;23.79;38.27;98791.97;5090514;28;20028;-66
2021/06/10 10:23:18;;;;;;;11.52;6.57;;;;;;;23.85;38.08;98786.84;5088413;28;20414;-67
2021/06/10 10:25:43;;;;;;;10.32;6.05;;;;;;;23.91;37.76;98778.91;5088066;28;20410;-67
2021/06/10 10:28:10;;;;;;;13.90;8.05;;;;;;;23.90;37.25;98775.31;5087959;28;20396;-67
2021/06/10 10:30:38;;;;;;;12.73;7.00;;;;;;;23.96;37.96;98770.16;5090787;28;20028;-67
2021/06/10 10:33:21;;;;;;;24.88;10.15;;;;;;;23.99;36.81;98763.84;5092521;28;20456;-66
2021/06/10 10:35:52;;;;;;;12.90;6.60;;;;;;;23.96;36.71;98758.97;5071969;28;20376;-68
2021/06/10 10:38:22;;;;;;;10.68;6.28;;;;;;;23.96;36.29;98756.16;5087701;28;20161;-68
2021/06/10 10:40:59;;;;;;;12.77;6.05;;;;;;;23.96;36.80;98758.97;5088078;28;20027;-67
2021/06/10 10:43:26;;;;;;;9.95;6.65;;;;;;;24.04;37.33;98751.50;5089207;28;20038;-68
2021/06/10 10:46:06;;;;;;;9.90;5.82;;;;;;;24.15;37.46;98776.84;5088670;28;20496;-67
2021/06/10 10:48:33;;;;;;;9.98;6.15;;;;;;;24.24;37.67;98763.38;5087928;28;20017;-67
2021/06/10 10:50:59;;;;;;;11.60;6.90;;;;;;;24.35;37.43;98758.69;5088248;28;20032;-67
2021/06/10 10:53:30;;;;;;;11.45;6.68;;;;;;;24.46;37.26;98758.81;5088550;28;20081;-67
2021/06/10 10:56:06;;;;;;;9.13;6.03;;;;;;;24.54;37.13;98756.91;5087978;28;20613;-67
2021/06/10 10:58:31;;;;;;;12.50;7.03;;;;;;;24.62;36.51;98760.59;5070623;28;20020;-70
2021/06/10 11:01:02;;;;;;;9.70;6.78;;;;;;;24.68;36.36;98757.03;5088807;28;20499;-68
2021/06/10 11:03:43;;;;;;;31.55;7.32;;;;;;;24.68;35.87;98767.47;5090179;28;20024;-67
2021/06/10 11:06:21;;;;;;;10.75;6.25;;;;;;;24.70;36.12;98778.28;5090091;28;20046;-68
2021/06/10 11:09:20;;;;;;;15.02;7.35;;;;;;;24.64;35.33;98800.28;5090353;28;20020;-67
2021/06/10 11:11:57;;;;;;;26.45;6.65;;;;;;;24.24;36.08;98813.81;5088976;28;20032;-66
2021/06/10 11:14:38;;;;;;;15.68;6.93;;;;;;;23.83;36.92;98816.41;5083263;28;20484;-66
2021/06/10 11:17:29;;;;;;;22.40;5.90;;;;;;;23.38;37.49;98830.91;5090519;28;20388;-66
2021/06/10 11:20:08;;;;;;;14.43;5.55;;;;;;;22.88;38.62;98834.38;5087788;28;20025;-66
2021/06/10 11:22:33;;;;;;;;;;;;;;;22.36;39.22;98838.47;5088732;28;20486;-66
2021/06/10 11:24:59;;;;;;;12.43;4.70;;;;;;;21.92;40.41;98845.91;5087730;28;19919;-68
2021/06/10 11:27:33;;;;;;;13.30;5.47;;;;;;;21.48;41.38;98846.81;5087409;28;20039;-67